Humidity-temperature Sensor

Selected Measurement Type: Air Temperature

 
Air Temperature [°C]     6 entries per hour
Showing data from 9/14/2018 (00:00:00 Z) to 9/13/2018 (00:01:00 Z)
Previous Next [ Day | 3-Days | 7-Days ]
First Last
Prev [ Day | 3-Days | 7-Days ] Next
First Last

Start Time:     :
End Time:     :     
Time (in GMT) :00 :50 :40 :30 :20 :10
Previous Next [ Day | 3-Days | 7-Days ]
First Last
Prev [ Day | 3-Days | 7-Days ] Next
First Last


123 => good data
MM => data is determined as missing
-- => data not received/configured
Back to Top Back to Top
9/14/2018 00:00 to 23:10 25.21 25.43 25.28 25.32 24.92 25.12
9/13/2018 23:00 to 22:10 24.63 24.36 24.86 24.84 24.80 24.93
9/13/2018 22:00 to 21:10 24.92 24.83 24.53 24.99 25.02 25.20
9/13/2018 21:00 to 20:10 25.17 25.12 25.15 25.30 25.02 24.05
9/13/2018 20:00 to 19:10 25.22 25.43 25.02 25.26 25.11 24.91
9/13/2018 19:00 to 18:10 24.07 25.09 25.04 25.06 24.78 24.82
9/13/2018 18:00 to 17:10 25.12 24.82 25.40 25.73 25.52 25.45
9/13/2018 17:00 to 16:10 25.39 24.86 24.52 25.47 25.48 25.57
9/13/2018 16:00 to 15:10 25.52 25.50 25.47 25.28 25.05 25.14
9/13/2018 15:00 to 14:10 24.88 24.97 24.94 24.82 24.86 24.75
9/13/2018 14:00 to 13:10 24.70 24.38 24.49 24.39 24.30 24.36
9/13/2018 13:00 to 12:10 24.30 24.34 24.15 24.27 24.03 24.31
9/13/2018 12:00 to 11:10 24.12 24.18 23.60 23.83 23.64 23.59
9/13/2018 11:00 to 10:10 23.84 23.89 23.72 23.77 23.73 23.96
9/13/2018 10:00 to 9:10 24.49 24.65 24.82 24.53 23.46 24.25
9/13/2018 09:00 to 8:10 -- -- -- -- -- --
9/13/2018 08:00 to 7:10 25.13 25.31 24.88 24.69 24.20 24.50
9/13/2018 07:00 to 6:10 24.27 24.32 24.81 24.93 24.90 24.83
9/13/2018 06:00 to 5:10 24.88 24.68 24.92 24.85 24.89 24.78
9/13/2018 05:00 to 4:10 24.65 24.45 24.22 24.06 23.73 23.51
9/13/2018 04:00 to 3:10 23.66 24.69 24.82 24.79 24.80 25.01
9/13/2018 03:00 to 2:10 24.92 24.90 24.90 24.86 24.82 24.89
9/13/2018 02:00 to 1:10 24.75 24.96 24.92 24.97 25.06 24.94
9/13/2018 01:00 to 0:10 24.92 24.16 24.76 24.87 24.89 24.85